Ava, Missouri
Current Conditions -  °F | °C
As of 12:45 PM on Monday 20 Oct 2014 (Local Time) from KBBG Reporting Station
Scattered Clouds Scattered Clouds  
Wind Chill: 72°   Ceiling: Unl
Heat Index: 72°   Visibility: 10mi
Dew Point: 57°   Wind: 6mph
Humidity: 60%   Direction: 280°W
Pressure: 30.07"   Gusts: NA
Location:  36.95°N, 92.66°W
Report Text: KBBG 201745Z 28005KT 10SM SCT040 22/14 A3007
Loading
Personal Weather Stations






























Interactive Weather Map
Tropical Storm Tracking
New forecast layout! Learn more

10-Day Weather Forecast

Advertisements
Track Severe Weather on mobile